createdAt,value
2023-05-22T00:00:17.787Z,24.69
2023-05-22T00:02:46.123Z,24.73
2023-05-22T00:05:15.438Z,24.75
2023-05-22T00:07:43.992Z,24.77
2023-05-22T00:10:12.712Z,24.75
2023-05-22T00:12:41.035Z,24.80
2023-05-22T00:15:11.682Z,24.83
2023-05-22T00:17:40.067Z,24.84
2023-05-22T00:20:11.110Z,24.80
2023-05-22T00:22:39.360Z,24.85
2023-05-22T00:25:09.314Z,24.86
2023-05-22T00:27:37.359Z,24.89
2023-05-22T00:30:07.444Z,24.92
2023-05-22T00:32:37.286Z,24.91
2023-05-22T00:35:06.616Z,24.92
2023-05-22T00:37:34.683Z,24.90
2023-05-22T00:40:03.064Z,24.89
2023-05-22T00:42:31.214Z,24.92
2023-05-22T00:44:59.329Z,24.93
2023-05-22T00:47:27.804Z,24.97
2023-05-22T00:49:57.351Z,24.97
2023-05-22T00:52:25.677Z,24.97
2023-05-22T00:54:55.103Z,24.97
2023-05-22T00:57:24.625Z,24.98
2023-05-22T00:59:53.110Z,24.95
2023-05-22T01:02:21.711Z,24.94
2023-05-22T01:04:50.287Z,24.94
2023-05-22T01:07:19.762Z,24.92
2023-05-22T01:09:48.091Z,24.92
2023-05-22T01:12:28.526Z,24.88
2023-05-22T01:15:05.159Z,24.87
2023-05-22T01:17:41.011Z,24.85
2023-05-22T01:20:15.706Z,24.83
2023-05-22T01:23:16.262Z,24.79
2023-05-22T01:26:18.514Z,24.74
2023-05-22T01:29:05.509Z,24.70
2023-05-22T01:31:39.032Z,24.70
2023-05-22T01:34:11.296Z,24.70
2023-05-22T01:36:42.893Z,24.66
2023-05-22T01:39:11.293Z,24.62
2023-05-22T01:41:41.589Z,24.59
2023-05-22T01:44:11.892Z,24.56
2023-05-22T01:46:41.335Z,24.51
2023-05-22T01:49:10.085Z,24.47
2023-05-22T01:51:51.448Z,24.41
2023-05-22T01:54:28.356Z,24.38
2023-05-22T01:57:06.083Z,24.33
2023-05-22T01:59:39.962Z,24.31
2023-05-22T02:02:12.749Z,24.27
2023-05-22T02:04:44.492Z,24.24
2023-05-22T02:07:14.987Z,24.23
2023-05-22T02:09:43.966Z,24.20
2023-05-22T02:12:14.642Z,24.17
2023-05-22T02:14:44.132Z,24.17
2023-05-22T02:17:13.785Z,24.15
2023-05-22T02:19:41.874Z,24.13
2023-05-22T02:22:13.698Z,24.13
2023-05-22T02:24:42.825Z,24.11
2023-05-22T02:27:10.848Z,24.09
2023-05-22T02:29:39.105Z,24.06
2023-05-22T02:32:07.783Z,24.02
2023-05-22T02:34:37.969Z,24.01
2023-05-22T02:37:06.603Z,23.98
2023-05-22T02:39:34.705Z,23.95
2023-05-22T02:42:03.016Z,23.91
2023-05-22T02:44:31.082Z,23.90
2023-05-22T02:46:59.336Z,23.87
2023-05-22T02:49:27.450Z,23.84
2023-05-22T02:51:56.998Z,23.83
2023-05-22T02:54:25.073Z,23.81
2023-05-22T02:56:53.142Z,23.76
2023-05-22T02:59:21.203Z,23.74
2023-05-22T03:01:49.411Z,23.72
2023-05-22T03:04:17.612Z,23.68
2023-05-22T03:06:46.379Z,23.67
2023-05-22T03:09:16.064Z,23.67
2023-05-22T03:11:44.185Z,23.67
2023-05-22T03:14:12.213Z,23.62
2023-05-22T03:16:40.363Z,23.61
2023-05-22T03:19:10.508Z,23.61
2023-05-22T03:21:39.258Z,23.59
2023-05-22T03:24:08.761Z,23.58
2023-05-22T03:26:38.422Z,23.57
2023-05-22T03:29:09.807Z,23.56
2023-05-22T03:31:41.406Z,23.54
2023-05-22T03:34:12.787Z,23.52
2023-05-22T03:36:42.695Z,23.51
2023-05-22T03:39:10.764Z,23.47
2023-05-22T03:41:46.395Z,23.47
2023-05-22T03:44:14.671Z,23.44
2023-05-22T03:46:44.288Z,23.44
2023-05-22T03:49:12.393Z,23.44
2023-05-22T03:51:40.393Z,23.45
2023-05-22T03:54:08.475Z,23.44
2023-05-22T03:56:36.687Z,23.47
2023-05-22T03:59:06.220Z,23.51
2023-05-22T04:01:34.667Z,23.52
2023-05-22T04:04:05.546Z,23.54
2023-05-22T04:06:34.234Z,23.57
2023-05-22T04:09:02.312Z,23.57
2023-05-22T04:11:32.144Z,23.57
2023-05-22T04:14:05.828Z,23.58
2023-05-22T04:16:34.396Z,23.60
2023-05-22T04:19:03.439Z,23.64
2023-05-22T04:21:34.394Z,23.64
2023-05-22T04:24:07.017Z,23.64
2023-05-22T04:26:36.097Z,23.68
2023-05-22T04:29:10.309Z,23.74
2023-05-22T04:31:38.405Z,23.77
2023-05-22T04:34:06.625Z,23.80
2023-05-22T04:36:35.949Z,23.84
2023-05-22T04:39:04.120Z,23.91
2023-05-22T04:41:32.572Z,23.95
2023-05-22T04:44:04.010Z,23.98
2023-05-22T04:46:34.471Z,24.00
2023-05-22T04:49:03.323Z,24.03
2023-05-22T04:51:32.367Z,24.02
2023-05-22T04:54:00.412Z,24.04
2023-05-22T04:56:36.359Z,24.08
2023-05-22T04:59:08.867Z,24.09
2023-05-22T05:01:38.916Z,24.10
2023-05-22T05:04:07.073Z,24.15
2023-05-22T05:06:35.883Z,24.14
2023-05-22T05:09:04.424Z,24.13
2023-05-22T05:11:32.522Z,24.14
2023-05-22T05:14:00.642Z,24.12
2023-05-22T05:16:30.249Z,24.10
2023-05-22T05:18:59.720Z,24.09
2023-05-22T05:21:28.551Z,23.96
2023-05-22T05:24:01.111Z,23.97
2023-05-22T05:26:29.589Z,24.02
2023-05-22T05:28:57.700Z,24.05
2023-05-22T05:31:33.019Z,24.09
2023-05-22T05:34:21.350Z,24.14
2023-05-22T05:36:57.231Z,24.13
2023-05-22T05:39:25.399Z,24.09
2023-05-22T05:41:53.692Z,24.08
2023-05-22T05:44:21.995Z,24.06
2023-05-22T05:46:50.122Z,24.00
2023-05-22T05:49:21.868Z,24.01
2023-05-22T05:51:50.206Z,23.99
2023-05-22T05:54:19.435Z,24.05
2023-05-22T05:56:47.960Z,24.04
2023-05-22T05:59:16.121Z,24.10
2023-05-22T06:02:19.355Z,24.17
2023-05-22T06:04:49.733Z,24.25
2023-05-22T06:07:19.725Z,24.31
2023-05-22T06:09:50.927Z,24.41
2023-05-22T06:12:24.531Z,24.50
2023-05-22T06:14:52.620Z,24.58
2023-05-22T06:17:21.695Z,24.54
2023-05-22T06:19:52.069Z,24.55
2023-05-22T06:22:20.538Z,24.53
2023-05-22T06:24:51.329Z,24.56
2023-05-22T06:27:24.160Z,24.56
2023-05-22T06:29:52.663Z,24.56
2023-05-22T06:32:21.594Z,24.55
2023-05-22T06:34:53.621Z,24.56
2023-05-22T06:37:23.092Z,24.59
2023-05-22T06:39:51.394Z,24.57
2023-05-22T06:42:34.408Z,24.57
2023-05-22T06:45:21.312Z,24.60
2023-05-22T06:48:05.473Z,24.57
2023-05-22T06:50:40.031Z,24.62
2023-05-22T06:53:08.731Z,24.66
2023-05-22T06:55:37.925Z,24.76
2023-05-22T06:58:13.334Z,24.88
2023-05-22T07:00:41.987Z,24.98
2023-05-22T07:03:21.393Z,25.02
2023-05-22T07:06:29.344Z,25.00
2023-05-22T07:08:57.729Z,24.97
2023-05-22T07:11:26.142Z,24.90
2023-05-22T07:13:54.522Z,24.92
2023-05-22T07:16:23.745Z,25.08
2023-05-22T07:18:53.210Z,25.17
2023-05-22T07:21:23.906Z,25.35
2023-05-22T07:23:54.905Z,25.63
2023-05-22T07:26:26.164Z,25.82
2023-05-22T07:29:03.069Z,25.93
2023-05-22T07:31:32.076Z,26.13
2023-05-22T07:34:00.482Z,26.45
2023-05-22T07:36:31.890Z,26.66
2023-05-22T07:39:01.838Z,26.72
2023-05-22T07:41:32.000Z,26.82
2023-05-22T07:44:00.839Z,26.91
2023-05-22T07:46:35.508Z,26.89
2023-05-22T07:49:11.595Z,26.98
2023-05-22T07:51:42.523Z,27.02
2023-05-22T07:54:13.606Z,27.16
2023-05-22T07:56:43.533Z,27.24
2023-05-22T07:59:12.177Z,27.37
2023-05-22T08:01:41.884Z,27.51
2023-05-22T08:04:10.519Z,27.83
2023-05-22T08:06:39.748Z,28.12
2023-05-22T08:09:08.095Z,28.38
2023-05-22T08:11:40.150Z,28.68
2023-05-22T08:14:08.901Z,28.98
2023-05-22T08:16:37.396Z,29.28
2023-05-22T08:19:08.049Z,29.28
2023-05-22T08:21:37.813Z,29.19
2023-05-22T08:24:06.613Z,29.20
2023-05-22T08:26:35.110Z,29.22
2023-05-22T08:29:04.932Z,29.43
2023-05-22T08:31:34.557Z,29.79
2023-05-22T08:34:03.567Z,30.00
2023-05-22T08:36:34.138Z,29.92
2023-05-22T08:39:02.741Z,30.03
2023-05-22T08:41:31.358Z,30.33
2023-05-22T08:43:59.886Z,30.48
2023-05-22T08:46:30.986Z,30.65
2023-05-22T08:48:59.862Z,30.78
2023-05-22T08:51:31.701Z,31.01
2023-05-22T08:54:00.671Z,30.99
2023-05-22T08:56:30.232Z,30.82
2023-05-22T08:58:59.527Z,30.78
2023-05-22T09:01:29.567Z,30.69
2023-05-22T09:04:02.040Z,30.60
2023-05-22T09:06:31.976Z,30.50
2023-05-22T09:09:01.589Z,30.51
2023-05-22T09:11:29.924Z,30.42
2023-05-22T09:14:08.453Z,30.42
2023-05-22T09:16:47.282Z,30.23
2023-05-22T09:19:16.389Z,29.91
2023-05-22T09:21:45.859Z,29.78
2023-05-22T09:24:14.763Z,29.70
2023-05-22T09:26:43.213Z,29.45
2023-05-22T09:29:11.566Z,29.33
2023-05-22T09:31:44.336Z,29.38
2023-05-22T09:34:16.002Z,29.38
2023-05-22T09:36:44.796Z,29.36
2023-05-22T09:39:13.221Z,29.43
2023-05-22T09:41:41.815Z,29.51
2023-05-22T09:44:17.340Z,29.37
2023-05-22T09:46:48.292Z,29.19
2023-05-22T09:49:18.306Z,29.04
2023-05-22T09:51:48.981Z,28.99
2023-05-22T09:54:18.036Z,29.01
2023-05-22T09:56:50.189Z,28.94
2023-05-22T09:59:22.691Z,28.97
2023-05-22T10:01:52.253Z,29.00
2023-05-22T10:04:23.842Z,28.88
2023-05-22T10:06:54.170Z,28.89
2023-05-22T10:09:30.920Z,28.93
2023-05-22T10:12:04.236Z,28.87
2023-05-22T10:14:33.387Z,28.68
2023-05-22T10:17:04.817Z,28.58
2023-05-22T10:19:38.403Z,28.45
2023-05-22T10:22:09.638Z,28.42
2023-05-22T10:24:38.844Z,28.45
2023-05-22T10:27:07.579Z,28.43
2023-05-22T10:29:43.959Z,28.38
2023-05-22T10:32:31.422Z,28.35
2023-05-22T10:35:17.000Z,28.29
2023-05-22T10:37:50.852Z,28.26
2023-05-22T10:40:28.905Z,28.27
2023-05-22T10:43:01.119Z,28.26
2023-05-22T10:45:30.065Z,28.25
2023-05-22T10:48:06.261Z,28.34
2023-05-22T10:50:37.390Z,28.54
2023-05-22T10:53:24.004Z,28.70
2023-05-22T10:55:53.496Z,29.00
2023-05-22T10:58:28.532Z,29.32
2023-05-22T11:01:11.015Z,29.53
2023-05-22T11:03:56.340Z,29.71
2023-05-22T11:06:42.827Z,29.85
2023-05-22T11:09:43.256Z,30.08
2023-05-22T11:12:20.878Z,30.42
2023-05-22T11:14:51.548Z,30.80
2023-05-22T11:17:23.229Z,31.05
2023-05-22T11:20:02.893Z,31.42
2023-05-22T11:22:35.120Z,31.65
2023-05-22T11:25:06.799Z,31.56
2023-05-22T11:27:36.512Z,31.64
2023-05-22T11:30:05.869Z,32.02
2023-05-22T11:32:37.078Z,32.47
2023-05-22T11:35:08.552Z,32.54
2023-05-22T11:37:41.757Z,32.54
2023-05-22T11:40:10.908Z,32.43
2023-05-22T11:42:39.383Z,32.18
2023-05-22T11:45:08.789Z,32.10
2023-05-22T11:47:37.676Z,32.03
2023-05-22T11:50:09.893Z,32.09
2023-05-22T11:52:41.241Z,32.22
2023-05-22T11:55:11.074Z,32.31
2023-05-22T11:57:39.851Z,32.55
2023-05-22T12:00:10.725Z,32.52
2023-05-22T12:02:46.488Z,31.86
2023-05-22T12:05:16.131Z,31.36
2023-05-22T12:07:46.094Z,31.31
2023-05-22T12:10:15.647Z,31.13
2023-05-22T12:12:45.276Z,30.79
2023-05-22T12:15:14.612Z,30.70
2023-05-22T12:17:44.077Z,30.57
2023-05-22T12:20:14.757Z,30.53
2023-05-22T12:22:44.258Z,30.76
2023-05-22T12:25:18.282Z,30.81
2023-05-22T12:27:47.611Z,30.90
2023-05-22T12:30:16.944Z,30.90
2023-05-22T12:32:49.348Z,30.70
2023-05-22T12:35:18.400Z,30.44
2023-05-22T12:37:50.974Z,30.24
2023-05-22T12:40:21.297Z,30.38
2023-05-22T12:42:50.180Z,30.50
2023-05-22T12:45:18.963Z,30.46
2023-05-22T12:47:47.537Z,30.41
2023-05-22T12:50:16.099Z,30.48
2023-05-22T12:52:44.486Z,30.50
2023-05-22T12:55:13.052Z,30.47
2023-05-22T12:57:45.794Z,30.94
2023-05-22T13:00:15.183Z,31.69
2023-05-22T13:02:43.673Z,32.19
2023-05-22T13:05:11.857Z,32.70
2023-05-22T13:07:40.088Z,32.61
2023-05-22T13:10:09.425Z,32.81
2023-05-22T13:12:37.588Z,32.72
2023-05-22T13:15:08.201Z,32.85
2023-05-22T13:17:36.304Z,32.68
2023-05-22T13:20:04.573Z,32.39
2023-05-22T13:22:32.782Z,32.28
2023-05-22T13:25:00.967Z,32.13
2023-05-22T13:27:30.206Z,32.09
2023-05-22T13:30:00.236Z,32.16
2023-05-22T13:32:29.844Z,32.15
2023-05-22T13:34:58.138Z,32.10
2023-05-22T13:37:26.350Z,32.08
2023-05-22T13:39:54.386Z,32.10
2023-05-22T13:42:22.503Z,32.09
2023-05-22T13:44:50.571Z,32.09
2023-05-22T13:47:18.690Z,31.94
2023-05-22T13:49:48.199Z,31.57
2023-05-22T13:52:16.409Z,31.20
2023-05-22T13:54:44.576Z,30.94
2023-05-22T13:57:12.603Z,30.71
2023-05-22T13:59:40.715Z,30.77
2023-05-22T14:02:08.844Z,30.93
2023-05-22T14:04:36.907Z,31.12
2023-05-22T14:07:06.647Z,31.21
2023-05-22T14:09:34.707Z,31.29
2023-05-22T14:12:02.798Z,31.42
2023-05-22T14:14:30.829Z,31.61
2023-05-22T14:16:58.968Z,31.94
2023-05-22T14:19:27.016Z,32.13
2023-05-22T14:21:55.113Z,32.33
2023-05-22T14:24:24.556Z,32.62
2023-05-22T14:26:53.061Z,32.97
2023-05-22T14:29:21.444Z,33.29
2023-05-22T14:31:51.944Z,33.34
2023-05-22T14:34:20.623Z,33.28
2023-05-22T14:36:48.719Z,33.22
2023-05-22T14:39:16.870Z,33.35
2023-05-22T14:41:46.287Z,33.60
2023-05-22T14:44:14.349Z,33.74
2023-05-22T14:46:42.553Z,33.74
2023-05-22T14:49:10.728Z,33.63
2023-05-22T14:51:38.901Z,33.63
2023-05-22T14:54:08.044Z,33.67
2023-05-22T14:56:36.065Z,33.66
2023-05-22T14:59:05.500Z,33.59
2023-05-22T15:01:33.586Z,33.33
2023-05-22T15:04:01.654Z,32.99
2023-05-22T15:06:29.738Z,32.77
2023-05-22T15:08:57.828Z,32.69
2023-05-22T15:11:26.717Z,32.58
2023-05-22T15:13:55.497Z,32.46
2023-05-22T15:16:25.784Z,32.37
2023-05-22T15:18:55.020Z,32.45
2023-05-22T15:21:23.259Z,32.41
2023-05-22T15:23:51.320Z,32.20
2023-05-22T15:26:19.466Z,32.25
2023-05-22T15:28:47.489Z,32.39
2023-05-22T15:31:15.587Z,32.47
2023-05-22T15:33:46.478Z,32.68
2023-05-22T15:36:14.526Z,32.72
2023-05-22T15:38:42.588Z,32.74
2023-05-22T15:41:10.637Z,32.58
2023-05-22T15:43:38.778Z,32.38
2023-05-22T15:46:07.051Z,32.12
2023-05-22T15:48:35.393Z,32.11
2023-05-22T15:51:06.783Z,31.76
2023-05-22T15:53:34.827Z,31.48
2023-05-22T15:56:03.010Z,31.34
2023-05-22T15:58:31.067Z,31.24
2023-05-22T16:00:59.846Z,30.97
2023-05-22T16:03:28.043Z,30.76
2023-05-22T16:05:56.333Z,30.40
2023-05-22T16:08:25.751Z,30.09
2023-05-22T16:10:55.487Z,30.05
2023-05-22T16:13:23.726Z,30.16
2023-05-22T16:15:51.760Z,30.16
2023-05-22T16:18:21.526Z,30.08
2023-05-22T16:20:49.554Z,30.04
2023-05-22T16:23:17.730Z,29.81
2023-05-22T16:28:15.142Z,29.70
2023-05-22T16:30:43.167Z,29.72
2023-05-22T16:33:11.275Z,29.61
2023-05-22T16:35:39.749Z,29.45
2023-05-22T16:38:11.735Z,29.32
2023-05-22T16:40:39.861Z,29.14
2023-05-22T16:43:10.789Z,28.83
2023-05-22T16:45:39.076Z,28.67
2023-05-22T16:48:08.290Z,28.49
2023-05-22T16:50:36.481Z,28.33
2023-05-22T16:53:04.506Z,28.09
2023-05-22T16:55:32.590Z,27.99
2023-05-22T16:58:01.500Z,27.90
2023-05-22T17:00:31.170Z,27.79
2023-05-22T17:02:59.349Z,27.71
2023-05-22T17:05:27.445Z,27.60
2023-05-22T17:07:55.488Z,27.56
2023-05-22T17:10:23.678Z,27.54
2023-05-22T17:12:51.900Z,27.46
2023-05-22T17:15:19.995Z,27.51
2023-05-22T17:17:49.542Z,27.46
2023-05-22T17:20:17.848Z,27.41
2023-05-22T17:22:45.930Z,27.23
2023-05-22T17:25:14.791Z,27.01
2023-05-22T17:27:42.795Z,26.97
2023-05-22T17:30:11.594Z,26.87
2023-05-22T17:32:39.722Z,26.92
2023-05-22T17:35:09.565Z,26.91
2023-05-22T17:37:37.649Z,26.82
2023-05-22T17:40:06.501Z,26.79
2023-05-22T17:42:34.522Z,26.71
2023-05-22T17:45:02.583Z,26.56
2023-05-22T17:47:30.686Z,26.51
2023-05-22T17:49:58.765Z,26.45
2023-05-22T17:52:28.224Z,26.30
2023-05-22T17:54:57.037Z,26.08
2023-05-22T17:57:25.957Z,25.94
2023-05-22T17:59:54.049Z,25.81
2023-05-22T18:02:22.110Z,25.66
2023-05-22T18:04:50.361Z,25.52
2023-05-22T18:07:19.943Z,25.36
2023-05-22T18:09:49.509Z,25.23
2023-05-22T18:12:31.203Z,25.09
2023-05-22T18:15:00.457Z,24.99
2023-05-22T18:17:28.659Z,24.98
2023-05-22T18:19:56.812Z,24.94
2023-05-22T18:22:25.574Z,24.83
2023-05-22T18:24:54.998Z,24.72
2023-05-22T18:27:23.020Z,24.63
2023-05-22T18:29:51.788Z,24.55
2023-05-22T18:32:19.936Z,24.47
2023-05-22T18:34:48.659Z,24.43
2023-05-22T18:37:17.430Z,24.32
2023-05-22T18:39:45.438Z,24.24
2023-05-22T18:42:14.932Z,24.15
2023-05-22T18:44:43.076Z,24.09
2023-05-22T18:47:11.226Z,24.04
2023-05-22T18:49:39.484Z,23.98
2023-05-22T18:52:07.500Z,23.84
2023-05-22T18:54:35.629Z,23.83
2023-05-22T18:57:03.787Z,23.71
2023-05-22T18:59:33.175Z,23.65
2023-05-22T19:02:01.246Z,23.54
2023-05-22T19:04:29.310Z,23.45
2023-05-22T19:07:13.447Z,23.32
2023-05-22T19:09:44.758Z,23.22
2023-05-22T19:12:12.990Z,23.17
2023-05-22T19:14:42.510Z,23.15
2023-05-22T19:17:11.050Z,23.12
2023-05-22T19:19:39.167Z,23.08
2023-05-22T19:22:07.396Z,22.96
2023-05-22T19:24:36.225Z,22.79
2023-05-22T19:27:04.619Z,22.70
2023-05-22T19:29:32.737Z,22.65
2023-05-22T19:32:02.179Z,22.60
2023-05-22T19:34:30.281Z,22.48
2023-05-22T19:36:58.461Z,22.40
2023-05-22T19:39:26.669Z,22.36
2023-05-22T19:41:54.821Z,22.32
2023-05-22T19:44:22.919Z,22.29
2023-05-22T19:46:51.328Z,22.25
2023-05-22T19:49:20.938Z,22.25
2023-05-22T19:51:49.058Z,22.22
2023-05-22T19:54:17.246Z,22.12
2023-05-22T19:56:45.321Z,22.04
2023-05-22T19:59:13.431Z,21.89
2023-05-22T20:01:41.663Z,21.81
2023-05-22T20:04:09.965Z,21.74
2023-05-22T20:06:39.466Z,21.60
2023-05-22T20:09:09.051Z,21.53
2023-05-22T20:11:37.698Z,21.53
2023-05-22T20:14:05.776Z,21.50
2023-05-22T20:16:33.912Z,21.50
2023-05-22T20:19:03.979Z,21.51
2023-05-22T20:21:32.214Z,21.46
2023-05-22T20:24:01.648Z,21.42
2023-05-22T20:26:29.729Z,21.40
2023-05-22T20:28:57.834Z,21.38
2023-05-22T20:31:25.970Z,21.34
2023-05-22T20:33:54.053Z,21.27
2023-05-22T20:36:22.330Z,21.23
2023-05-22T20:38:50.463Z,21.22
2023-05-22T20:41:20.133Z,21.27
2023-05-22T20:43:48.232Z,21.31
2023-05-22T20:46:16.314Z,21.38
2023-05-22T20:48:46.956Z,21.42
2023-05-22T20:51:15.685Z,21.44
2023-05-22T20:53:43.720Z,21.38
2023-05-22T20:56:11.805Z,21.38
2023-05-22T20:58:41.360Z,21.38
2023-05-22T21:01:09.559Z,21.38
2023-05-22T21:03:37.747Z,21.40
2023-05-22T21:06:06.331Z,21.39
2023-05-22T21:08:34.441Z,21.40
2023-05-22T21:11:02.532Z,21.39
2023-05-22T21:13:53.667Z,21.40
2023-05-22T21:19:08.392Z,21.43
2023-05-22T21:21:41.496Z,21.55
2023-05-22T21:24:10.218Z,21.67
2023-05-22T21:26:38.908Z,21.75
2023-05-22T21:29:08.586Z,21.75
2023-05-22T21:31:36.776Z,21.77
2023-05-22T21:34:04.897Z,21.74
2023-05-22T21:36:32.997Z,21.69
2023-05-22T21:39:01.312Z,21.65
2023-05-22T21:41:29.400Z,21.64
2023-05-22T21:43:59.652Z,21.68
2023-05-22T21:46:30.769Z,21.70
2023-05-22T21:49:06.540Z,21.67
2023-05-22T21:51:34.829Z,21.66
2023-05-22T21:54:02.947Z,21.57
2023-05-22T21:56:31.055Z,21.53
2023-05-22T21:58:59.718Z,21.52
2023-05-22T22:01:29.234Z,21.47
2023-05-22T22:03:57.503Z,21.48
2023-05-22T22:06:25.673Z,21.39
2023-05-22T22:08:54.127Z,21.32
2023-05-22T22:11:22.596Z,21.36
2023-05-22T22:13:50.632Z,21.35
2023-05-22T22:16:18.839Z,21.33
2023-05-22T22:18:49.046Z,21.39
2023-05-22T22:21:17.231Z,21.37
2023-05-22T22:23:45.352Z,21.35
2023-05-22T22:26:13.759Z,21.35
2023-05-22T22:28:41.839Z,21.38
2023-05-22T22:31:09.917Z,21.36
2023-05-22T22:33:38.028Z,21.30
2023-05-22T22:36:08.823Z,21.35
2023-05-22T22:38:38.521Z,21.37
2023-05-22T22:41:08.730Z,21.42
2023-05-22T22:43:37.032Z,21.45
2023-05-22T22:46:05.082Z,21.37
2023-05-22T22:48:35.998Z,21.31
2023-05-22T22:51:04.891Z,21.27
2023-05-22T22:53:34.348Z,21.22
2023-05-22T22:56:02.730Z,21.17
2023-05-22T22:58:30.830Z,21.14
2023-05-22T23:00:59.038Z,21.10
2023-05-22T23:03:27.726Z,21.15
2023-05-22T23:05:55.816Z,21.10
2023-05-22T23:08:23.874Z,21.14
2023-05-22T23:10:53.308Z,21.11
2023-05-22T23:13:21.441Z,21.09
2023-05-22T23:15:49.643Z,21.11
2023-05-22T23:18:17.784Z,21.11
2023-05-22T23:20:46.289Z,21.14
2023-05-22T23:23:14.403Z,21.13
2023-05-22T23:25:42.602Z,21.20
2023-05-22T23:28:12.156Z,21.25
2023-05-22T23:30:40.228Z,21.30
2023-05-22T23:33:08.237Z,21.20
2023-05-22T23:35:36.487Z,21.11
2023-05-22T23:38:04.530Z,21.09
2023-05-22T23:40:32.616Z,21.09
2023-05-22T23:43:00.693Z,21.09
2023-05-22T23:45:30.235Z,21.10
2023-05-22T23:47:58.357Z,21.01
2023-05-22T23:50:26.491Z,20.95
2023-05-22T23:53:05.200Z,20.87
2023-05-22T23:55:33.285Z,20.80
2023-05-22T23:58:01.444Z,20.73
